Time;durP1;ratioP1;P1;durP2;ratioP2;P2;SDS_P1;SDS_P2;PMS_P1;PMS_P2;Temp;Humidity;BMP_temperature;BMP_pressure;BME280_temperature;BME280_humidity;BME280_pressure;Samples;Min_cycle;Max_cycle;Signal;HPM_P1;HPM_P2
2021/04/24 00:00:01;;;;;;;41.17;20.20;;;;;;;;;;4943373;28;20030;-46
2021/04/24 00:02:27;;;;;;;46.10;21.83;;;;;;;;;;4943405;28;20022;-46
2021/04/24 00:04:53;;;;;;;40.70;20.13;;;;;;;;;;4942995;28;20599;-46
2021/04/24 00:07:19;;;;;;;32.38;16.40;;;;;;;;;;4943665;28;20169;-46
2021/04/24 00:09:48;;;;;;;48.83;24.70;;;;;;;;;;4943128;28;20051;-46
2021/04/24 00:12:14;;;;;;;48.85;22.95;;;;;;;;;;4944305;28;20063;-45
2021/04/24 00:14:40;;;;;;;58.22;25.98;;;;;;;;;;4942729;28;20078;-46
2021/04/24 00:17:06;;;;;;;56.15;26.17;;;;;;;;;;4943398;28;20658;-46
2021/04/24 00:19:32;;;;;;;53.67;26.48;;;;;;;;;;4942980;28;20137;-46
2021/04/24 00:21:58;;;;;;;64.20;30.73;;;;;;;;;;4942535;28;20042;-46
2021/04/24 00:24:24;;;;;;;64.30;29.23;;;;;;;;;;4943174;28;20097;-46
2021/04/24 00:26:50;;;;;;;68.90;30.67;;;;;;;;;;4943055;28;20122;-46
2021/04/24 00:29:17;;;;;;;71.03;33.78;;;;;;;;;;4943344;28;20073;-46
2021/04/24 00:31:43;;;;;;;69.60;32.63;;;;;;;;;;4942697;28;20031;-46
2021/04/24 00:34:09;;;;;;;67.22;33.95;;;;;;;;;;4946750;28;20756;-44
2021/04/24 00:36:35;;;;;;;79.05;37.78;;;;;;;;;;4974851;28;20034;-45
2021/04/24 00:39:01;;;;;;;70.53;34.15;;;;;;;;;;4975211;28;20031;-46
2021/04/24 00:41:27;;;;;;;80.00;36.63;;;;;;;;;;4974978;28;20029;-45
2021/04/24 00:43:53;;;;;;;70.35;35.20;;;;;;;;;;4974799;28;20026;-46
2021/04/24 00:46:20;;;;;;;76.68;37.10;;;;;;;;;;4974608;28;20173;-46
2021/04/24 00:48:46;;;;;;;70.70;36.67;;;;;;;;;;4974849;28;20427;-46
2021/04/24 00:51:12;;;;;;;73.40;37.47;;;;;;;;;;4974749;28;20077;-45
2021/04/24 00:53:38;;;;;;;76.68;36.40;;;;;;;;;;4974920;28;20101;-45
2021/04/24 00:56:05;;;;;;;79.25;36.88;;;;;;;;;;4974674;28;20026;-45
2021/04/24 00:58:33;;;;;;;76.68;36.35;;;;;;;;;;4974642;28;20061;-46
2021/04/24 01:00:59;;;;;;;84.13;38.42;;;;;;;;;;4974516;28;20030;-45
2021/04/24 01:03:25;;;;;;;77.68;37.45;;;;;;;;;;4974601;28;20463;-47
2021/04/24 01:05:51;;;;;;;58.95;31.00;;;;;;;;;;4974253;28;20113;-47
2021/04/24 01:08:17;;;;;;;63.65;32.15;;;;;;;;;;4974659;28;20054;-47
2021/04/24 01:10:44;;;;;;;66.80;34.20;;;;;;;;;;4974352;28;20023;-45
2021/04/24 01:13:11;;;;;;;74.93;37.08;;;;;;;;;;4974493;28;20507;-45
2021/04/24 01:15:38;;;;;;;81.20;40.15;;;;;;;;;;4974363;28;20073;-47
2021/04/24 01:18:10;;;;;;;78.72;39.97;;;;;;;;;;4974658;28;20031;-47
2021/04/24 01:20:38;;;;;;;79.78;40.13;;;;;;;;;;4974482;28;20027;-47
2021/04/24 01:23:07;;;;;;;82.45;40.92;;;;;;;;;;4974305;28;20031;-47
2021/04/24 01:25:36;;;;;;;75.93;37.85;;;;;;;;;;4974495;28;20462;-47
2021/04/24 01:28:03;;;;;;;90.53;40.78;;;;;;;;;;4974228;28;20035;-47
2021/04/24 01:30:34;;;;;;;78.25;39.60;;;;;;;;;;4974445;28;20114;-46
2021/04/24 01:33:00;;;;;;;76.25;37.70;;;;;;;;;;4974681;28;20022;-46
2021/04/24 01:35:28;;;;;;;71.85;33.97;;;;;;;;;;4960589;28;20031;-46
2021/04/24 01:37:55;;;;;;;57.03;28.20;;;;;;;;;;4978435;28;20109;-46
2021/04/24 01:40:21;;;;;;;43.22;22.38;;;;;;;;;;4978133;28;20030;-46
2021/04/24 01:42:49;;;;;;;45.30;21.02;;;;;;;;;;4978027;28;20496;-46
2021/04/24 01:45:17;;;;;;;39.95;20.95;;;;;;;;;;4978002;28;20053;-46
2021/04/24 01:47:43;;;;;;;50.25;25.02;;;;;;;;;;4978177;28;20031;-46
2021/04/24 01:50:12;;;;;;;59.15;29.95;;;;;;;;;;4977891;28;20090;-46
2021/04/24 01:52:39;;;;;;;54.97;27.23;;;;;;;;;;4978185;28;20054;-46
2021/04/24 01:55:11;;;;;;;60.38;31.30;;;;;;;;;;4978334;28;20379;-46
2021/04/24 01:57:39;;;;;;;52.90;27.77;;;;;;;;;;4977908;28;20026;-46
2021/04/24 02:00:07;;;;;;;51.88;26.77;;;;;;;;;;4977988;28;20027;-46
2021/04/24 02:02:33;;;;;;;48.75;26.15;;;;;;;;;;4960037;28;20037;-45
2021/04/24 02:05:01;;;;;;;55.95;29.77;;;;;;;;;;4977690;28;20030;-46
2021/04/24 02:07:27;;;;;;;59.88;30.30;;;;;;;;;;4977402;28;20471;-46
2021/04/24 02:09:53;;;;;;;44.05;23.85;;;;;;;;;;4977701;28;20054;-46
2021/04/24 02:12:19;;;;;;;47.50;26.35;;;;;;;;;;4977475;28;20026;-47
2021/04/24 02:14:46;;;;;;;45.25;24.95;;;;;;;;;;4977525;28;20073;-46
2021/04/24 02:17:13;;;;;;;49.28;27.13;;;;;;;;;;4977654;28;20031;-46
2021/04/24 02:19:41;;;;;;;39.33;22.30;;;;;;;;;;4977487;28;20026;-46
2021/04/24 02:22:08;;;;;;;37.85;21.30;;;;;;;;;;4977461;28;20387;-47
2021/04/24 02:24:54;;;;;;;37.28;19.80;;;;;;;;;;4977424;28;20041;-46
2021/04/24 02:27:21;;;;;;;35.63;20.38;;;;;;;;;;4977386;28;20042;-46
2021/04/24 02:29:48;;;;;;;42.25;22.25;;;;;;;;;;4977310;28;20482;-46
2021/04/24 02:32:15;;;;;;;36.75;20.20;;;;;;;;;;4977359;28;20090;-46
2021/04/24 02:34:43;;;;;;;39.70;20.30;;;;;;;;;;4977513;28;20077;-46
2021/04/24 02:37:10;;;;;;;47.67;24.48;;;;;;;;;;4977333;28;20435;-46
2021/04/24 02:39:37;;;;;;;46.97;21.63;;;;;;;;;;4977276;28;20054;-46
2021/04/24 02:42:04;;;;;;;37.20;19.70;;;;;;;;;;4977140;28;20023;-46
2021/04/24 02:44:32;;;;;;;36.28;19.42;;;;;;;;;;4976719;28;20033;-46
2021/04/24 02:46:58;;;;;;;41.13;19.42;;;;;;;;;;4976945;28;20113;-46
2021/04/24 02:49:24;;;;;;;47.30;21.42;;;;;;;;;;4976781;28;20031;-46
2021/04/24 02:51:51;;;;;;;40.00;20.77;;;;;;;;;;4976900;28;20035;-46
2021/04/24 02:54:17;;;;;;;41.50;22.38;;;;;;;;;;4976730;28;20023;-47
2021/04/24 02:56:43;;;;;;;39.35;21.05;;;;;;;;;;4976989;28;20031;-44
2021/04/24 02:59:09;;;;;;;38.40;20.23;;;;;;;;;;4976768;28;20106;-44
2021/04/24 03:01:35;;;;;;;42.28;20.52;;;;;;;;;;4976630;28;20037;-45
2021/04/24 03:04:01;;;;;;;43.63;21.48;;;;;;;;;;4976586;28;20033;-45
2021/04/24 03:06:28;;;;;;;41.72;21.35;;;;;;;;;;4976476;28;20055;-45
2021/04/24 03:08:54;;;;;;;43.78;20.80;;;;;;;;;;4976371;28;20030;-45
2021/04/24 03:11:20;;;;;;;44.20;22.73;;;;;;;;;;4976640;28;20030;-45
2021/04/24 03:13:46;;;;;;;39.90;23.40;;;;;;;;;;4976581;28;20383;-45
2021/04/24 03:16:12;;;;;;;45.55;23.45;;;;;;;;;;4976479;28;20102;-45
2021/04/24 03:18:38;;;;;;;47.63;24.25;;;;;;;;;;4976402;28;20130;-45
2021/04/24 03:21:05;;;;;;;55.03;24.90;;;;;;;;;;4976249;28;20484;-45
2021/04/24 03:23:31;;;;;;;54.13;28.35;;;;;;;;;;4976332;28;20118;-46
2021/04/24 03:25:57;;;;;;;56.65;27.95;;;;;;;;;;4976053;28;20019;-46
2021/04/24 03:28:23;;;;;;;51.55;27.23;;;;;;;;;;4976250;28;20022;-45
2021/04/24 03:30:49;;;;;;;52.67;26.80;;;;;;;;;;4976353;28;20497;-46
2021/04/24 03:33:16;;;;;;;50.40;25.45;;;;;;;;;;4976177;28;20110;-45
2021/04/24 03:35:42;;;;;;;48.80;23.83;;;;;;;;;;4976229;28;20054;-45
2021/04/24 03:38:08;;;;;;;56.00;24.30;;;;;;;;;;4975890;28;20488;-45
2021/04/24 03:40:34;;;;;;;44.33;23.13;;;;;;;;;;4976221;28;20554;-45
2021/04/24 03:43:01;;;;;;;40.42;21.85;;;;;;;;;;4975938;28;20089;-45
2021/04/24 03:45:27;;;;;;;41.60;23.27;;;;;;;;;;4976124;28;20106;-45
2021/04/24 03:47:54;;;;;;;52.28;23.80;;;;;;;;;;4976132;28;20483;-45
2021/04/24 03:50:21;;;;;;;52.47;24.70;;;;;;;;;;4975839;28;20033;-45
2021/04/24 03:52:48;;;;;;;44.03;22.58;;;;;;;;;;4975759;28;20023;-45
2021/04/24 03:55:15;;;;;;;45.60;22.23;;;;;;;;;;4975578;28;20111;-46
2021/04/24 03:57:45;;;;;;;46.13;23.00;;;;;;;;;;4975243;28;20027;-46
2021/04/24 04:00:12;;;;;;;44.88;22.05;;;;;;;;;;4975813;28;20019;-46
2021/04/24 04:02:51;;;;;;;43.90;22.30;;;;;;;;;;4975633;28;20118;-46
2021/04/24 04:05:18;;;;;;;46.38;22.52;;;;;;;;;;4975632;28;20426;-46
2021/04/24 04:07:45;;;;;;;38.60;19.17;;;;;;;;;;4975123;28;20642;-46
2021/04/24 04:10:12;;;;;;;34.50;20.55;;;;;;;;;;4975675;28;20062;-47
2021/04/24 04:12:38;;;;;;;36.72;19.20;;;;;;;;;;4975615;28;20435;-46
2021/04/24 04:15:05;;;;;;;40.05;20.08;;;;;;;;;;4975575;28;20121;-46
2021/04/24 04:17:31;;;;;;;38.30;19.17;;;;;;;;;;4975717;28;20381;-47
2021/04/24 04:19:58;;;;;;;37.03;18.02;;;;;;;;;;4975352;28;20033;-46
2021/04/24 04:22:25;;;;;;;46.50;16.98;;;;;;;;;;4975279;28;20034;-46
2021/04/24 04:24:51;;;;;;;33.42;17.63;;;;;;;;;;4975098;28;20126;-46
2021/04/24 04:27:17;;;;;;;33.00;16.33;;;;;;;;;;4975512;28;20042;-46
2021/04/24 04:29:48;;;;;;;30.95;16.45;;;;;;;;;;4975320;28;20078;-46
2021/04/24 04:32:14;;;;;;;32.08;15.23;;;;;;;;;;4975219;28;20022;-46
2021/04/24 04:34:40;;;;;;;25.25;13.95;;;;;;;;;;4975000;28;20054;-46
2021/04/24 04:37:07;;;;;;;27.08;14.48;;;;;;;;;;4974827;28;20039;-46
2021/04/24 04:39:33;;;;;;;27.60;15.25;;;;;;;;;;4975011;28;20085;-46
2021/04/24 04:41:59;;;;;;;26.80;14.43;;;;;;;;;;4975152;28;20027;-46
2021/04/24 04:44:27;;;;;;;30.90;14.55;;;;;;;;;;4975084;28;20107;-46
2021/04/24 04:46:53;;;;;;;31.65;14.23;;;;;;;;;;4974959;28;20027;-46
2021/04/24 04:49:19;;;;;;;29.63;15.88;;;;;;;;;;4974911;28;20019;-46
2021/04/24 04:51:45;;;;;;;35.30;21.13;;;;;;;;;;4974597;28;20027;-47
2021/04/24 04:54:11;;;;;;;24.65;15.23;;;;;;;;;;4957279;28;20039;-46
2021/04/24 04:56:37;;;;;;;27.77;17.20;;;;;;;;;;4974886;28;20035;-46
2021/04/24 04:59:04;;;;;;;30.50;16.70;;;;;;;;;;4974642;28;20029;-46
2021/04/24 05:01:30;;;;;;;27.42;16.20;;;;;;;;;;4974707;28;20053;-46
2021/04/24 05:03:56;;;;;;;28.98;16.90;;;;;;;;;;4974677;28;20022;-47
2021/04/24 05:06:22;;;;;;;30.15;16.88;;;;;;;;;;4974380;28;20047;-46
2021/04/24 05:08:48;;;;;;;30.15;17.92;;;;;;;;;;4974189;28;20088;-46
2021/04/24 05:11:14;;;;;;;21.98;14.10;;;;;;;;;;4974519;28;20484;-47
2021/04/24 05:13:42;;;;;;;21.23;13.55;;;;;;;;;;4974887;28;20058;-46
2021/04/24 05:16:08;;;;;;;22.30;15.32;;;;;;;;;;4974708;28;20015;-47
2021/04/24 05:18:34;;;;;;;21.27;14.15;;;;;;;;;;4974554;28;20085;-46
2021/04/24 05:21:03;;;;;;;25.08;17.20;;;;;;;;;;4974489;28;20519;-46
2021/04/24 05:23:31;;;;;;;24.02;14.25;;;;;;;;;;4974473;28;20050;-46
2021/04/24 05:25:57;;;;;;;25.65;16.58;;;;;;;;;;4974611;28;20023;-46
2021/04/24 05:28:23;;;;;;;19.05;12.85;;;;;;;;;;4974698;28;20035;-47
2021/04/24 05:30:49;;;;;;;24.40;17.65;;;;;;;;;;4974313;28;20027;-47
2021/04/24 05:33:15;;;;;;;28.83;17.92;;;;;;;;;;4974353;28;20093;-47
2021/04/24 05:35:41;;;;;;;32.00;18.52;;;;;;;;;;4974378;28;20051;-47
2021/04/24 05:38:07;;;;;;;26.60;16.27;;;;;;;;;;4974212;28;20102;-47
2021/04/24 05:40:33;;;;;;;23.52;12.75;;;;;;;;;;4974209;28;20356;-47
2021/04/24 05:42:59;;;;;;;18.15;11.57;;;973.30;307.20;;;;;;4974172;28;20546;-47
2021/04/24 05:45:25;;;;;;;21.98;13.27;;;973.00;307.20;;;;;;4974338;28;20031;-47
2021/04/24 05:47:54;;;;;;;19.20;10.48;;;;;;;;;;4974084;28;20097;-47
2021/04/24 05:50:22;;;;;;;19.85;12.57;;;;;;;;;;4974195;28;20407;-47
2021/04/24 05:52:48;;;;;;;20.95;12.70;;;;;;;;;;4974333;28;20065;-47
2021/04/24 05:55:14;;;;;;;23.70;14.23;;;;;;;;;;4974302;28;20049;-47
2021/04/24 05:57:41;;;;;;;26.15;22.42;;;;;;;;;;4974333;28;20050;-46
2021/04/24 06:00:16;;;;;;;23.25;16.52;;;;;;;;;;4974085;28;20534;-47
2021/04/24 06:02:42;;;;;;;25.00;11.55;;;;;;;;;;4974228;28;20357;-46
2021/04/24 06:05:09;;;;;;;26.10;13.23;;;;;;;;;;4973914;28;20426;-47
2021/04/24 06:07:36;;;;;;;16.02;12.00;;;;;;;;;;4973705;28;20094;-46
2021/04/24 06:10:03;;;;;;;19.52;12.95;;;;;;;;;;4974074;28;20022;-46
2021/04/24 06:12:30;;;;;;;18.63;11.45;;;;;;;;;;4974098;28;20029;-47
2021/04/24 06:14:56;;;;;;;19.23;10.77;;;;;;;;;;4974063;28;20442;-47
2021/04/24 06:17:22;;;;;;;18.20;11.50;;;;;;;;;;4973976;28;20026;-46
2021/04/24 06:19:48;;;;;;;25.48;11.35;;;;;;;;;;4975410;28;20026;-46
2021/04/24 06:22:14;;;;;;;16.75;11.10;;;;;;;;;;4977290;28;20054;-47
2021/04/24 06:24:40;;;;;;;19.95;11.38;;;;;;;;;;4977476;28;20503;-46
2021/04/24 06:27:06;;;;;;;23.70;11.18;;;;;;;;;;4977393;28;20035;-46
2021/04/24 06:29:32;;;;;;;17.13;11.57;;;;;;;;;;4977588;28;20066;-46
2021/04/24 06:32:01;;;;;;;15.25;9.25;;;;;;;;;;4977437;28;20034;-47
2021/04/24 06:34:27;;;;;;;16.67;10.55;;;;;;;;;;4977197;28;20051;-46
2021/04/24 06:36:53;;;;;;;19.17;11.48;;;;;;;;;;4977422;28;20031;-46
2021/04/24 06:39:19;;;;;;;18.42;9.65;;;;;;;;;;4977091;28;20038;-46
2021/04/24 06:41:46;;;;;;;21.25;12.15;;;;;;;;;;4977296;28;20102;-47
2021/04/24 06:44:12;;;;;;;17.42;11.15;;;;;;;;;;4977035;28;20033;-47
2021/04/24 06:46:39;;;;;;;23.25;11.73;;;;;;;;;;4977126;28;20054;-47
2021/04/24 06:49:05;;;;;;;16.88;9.32;;;;;;;;;;4977107;28;20039;-47
2021/04/24 06:51:31;;;;;;;19.25;10.98;;;;;;;;;;4976768;28;20062;-46
2021/04/24 06:53:57;;;;;;;17.15;10.05;;;;;;;;;;4977138;28;20403;-46
2021/04/24 06:56:23;;;;;;;22.88;9.27;;;;;;;;;;4977054;28;20023;-46
2021/04/24 06:58:49;;;;;;;12.60;8.18;;;;;;;;;;4976736;28;20027;-46
2021/04/24 07:01:15;;;;;;;13.52;8.50;;;;;;;;;;4976764;28;20030;-47
2021/04/24 07:03:41;;;;;;;19.25;8.70;;;;;;;;;;4976829;28;20027;-46
2021/04/24 07:06:07;;;;;;;19.20;9.65;;;;;;;;;;4976293;28;20408;-46
2021/04/24 07:08:33;;;;;;;20.27;11.32;;;;;;;;;;4966334;28;20098;-46
2021/04/24 07:10:59;;;;;;;20.27;10.70;;;;;;;;;;4966111;28;20019;-46
2021/04/24 07:13:26;;;;;;;26.08;13.55;;;;;;;;;;4964429;28;20028;-47
2021/04/24 07:15:52;;;;;;;18.80;10.23;;;;;;;;;;4965902;28;20046;-45
2021/04/24 07:18:18;;;;;;;15.10;9.60;;;;;;;;;;4965814;28;20031;-46
2021/04/24 07:20:44;;;;;;;18.05;10.30;;;;;;;;;;4964218;28;20059;-45
2021/04/24 07:23:10;;;;;;;16.92;9.50;;;;;;;;;;4965938;28;20030;-46
2021/04/24 07:25:37;;;;;;;21.13;11.60;;;;;;;;;;4965324;28;20016;-45
2021/04/24 07:28:04;;;;;;;21.90;12.68;;;;;;;;;;4963968;28;20039;-46
2021/04/24 07:30:30;;;;;;;25.63;11.98;;;;;;;;;;4965947;28;20023;-47
2021/04/24 07:32:57;;;;;;;17.67;9.75;;;;;;;;;;4965186;28;20070;-46
2021/04/24 07:35:24;;;;;;;24.65;9.82;;;;;;;;;;4967306;28;20164;-45
2021/04/24 07:37:50;;;;;;;18.02;9.30;;;;;;;;;;4946756;28;20046;-46
2021/04/24 07:40:16;;;;;;;21.52;12.10;;;;;;;;;;4943793;28;20134;-46
2021/04/24 07:42:42;;;;;;;34.75;19.95;;;;;;;;;;4943925;28;20027;-46
2021/04/24 07:45:13;;;;;;;21.90;10.95;;;;;;;;;;4943858;28;20560;-46
2021/04/24 07:47:39;;;;;;;22.33;10.47;;;;;;;;;;4944702;28;20659;-47
2021/04/24 07:50:07;;;;;;;22.48;12.20;;;;;;;;;;4944705;28;20149;-45
2021/04/24 07:52:34;;;;;;;28.88;13.88;;;;;;;;;;4943605;28;20137;-45
2021/04/24 07:55:00;;;;;;;122.07;72.63;;;;;;;;;;4944242;28;20113;-45
2021/04/24 07:57:28;;;;;;;74.15;46.38;;;;;;;;;;4944509;28;20316;-47
2021/04/24 07:59:58;;;;;;;84.68;60.47;;;;;;;;;;4944279;28;20385;-45
2021/04/24 08:02:25;;;;;;;219.60;137.57;;;;;;;;;;4944332;28;20522;-47
2021/04/24 08:04:52;;;;;;;128.00;74.68;;;;;;;;;;4943363;28;21353;-48
2021/04/24 08:07:18;;;;;;;45.47;27.90;;;;;;;;;;4944117;28;20051;-50
2021/04/24 08:09:46;;;;;;;38.45;21.92;;;;;;;;;;4943055;28;20487;-46
2021/04/24 08:12:12;;;;;;;115.88;58.95;;;;;;;;;;4943402;28;20544;-46
2021/04/24 08:14:38;;;;;;;80.55;40.75;;;;;;;;;;4943655;28;20516;-46
2021/04/24 08:17:04;;;;;;;109.13;63.67;;;;;;;;;;4943411;28;20038;-45
2021/04/24 08:19:31;;;;;;;131.60;85.95;;;;;;;;;;4943402;28;20031;-46
2021/04/24 08:21:58;;;;;;;118.57;52.50;;;;;;;;;;4943228;28;20038;-48
2021/04/24 08:24:25;;;;;;;69.53;38.85;;;;;;;;;;4943626;28;20038;-49
2021/04/24 08:26:51;;;;;;;83.22;42.13;;;;;;;;;;4942675;28;20369;-48
2021/04/24 08:29:17;;;;;;;47.45;24.55;;;;;;;;;;4943533;28;20042;-48
2021/04/24 08:31:45;;;;;;;34.92;22.90;;;;;;;;;;4943433;28;20319;-47
2021/04/24 08:34:11;;;;;;;51.30;34.08;;;;;;;;;;4943177;28;20062;-47
2021/04/24 08:36:37;;;;;;;46.03;28.63;;;;;;;;;;4942468;28;20039;-48
2021/04/24 08:39:07;;;;;;;103.55;60.67;;;;;;;;;;4942908;28;20031;-47
2021/04/24 08:41:35;;;;;;;109.70;42.88;;;;;;;;;;4942350;28;20404;-45
2021/04/24 08:44:01;;;;;;;63.40;26.42;;;;;;;;;;4943247;28;20034;-48
2021/04/24 08:46:27;;;;;;;107.07;41.67;;;;;;;;;;4943128;28;20538;-50
2021/04/24 08:48:57;;;;;;;81.53;31.45;;;;;;;;;;4943148;28;21024;-47
2021/04/24 08:51:24;;;;;;;52.42;29.02;;;;;;;;;;4943021;28;20024;-46
2021/04/24 08:53:51;;;;;;;193.50;127.50;;;;;;;;;;4943049;28;20046;-46
2021/04/24 08:56:18;;;;;;;100.28;54.85;;;;;;;;;;4928441;28;20070;-46
2021/04/24 08:58:44;;;;;;;61.40;35.55;;;;;;;;;;4943139;28;20032;-45
2021/04/24 09:01:11;;;;;;;34.83;16.25;;;;;;;;;;4942931;28;20030;-46
2021/04/24 09:03:37;;;;;;;47.75;15.77;;;;;;;;;;4943372;28;20066;-46
2021/04/24 09:06:04;;;;;;;33.80;14.18;;;;;;;;;;4942508;28;20127;-45
2021/04/24 09:08:33;;;;;;;56.50;20.65;;;;;;;;;;4942496;28;20347;-51
2021/04/24 09:11:02;;;;;;;32.35;12.73;;;;;;;;;;4942529;28;20055;-47
2021/04/24 09:13:29;;;;;;;16.85;8.35;;;;;;;;;;4942580;28;20038;-46
2021/04/24 09:15:56;;;;;;;24.00;10.32;;;;;;;;;;4946415;28;20361;-47
2021/04/24 09:18:25;;;;;;;26.35;12.02;;;;;;;;;;4939939;28;20501;-46
2021/04/24 09:20:53;;;;;;;21.33;10.20;;;;;;;;;;4943768;28;20539;-47
2021/04/24 09:23:20;;;;;;;20.05;9.20;;;;;;;;;;4945295;28;20702;-47
2021/04/24 09:25:46;;;;;;;15.73;7.55;;;;;;;;;;4944981;28;20026;-46
2021/04/24 09:28:13;;;;;;;19.95;8.65;;;;;;;;;;4943747;28;20149;-46
2021/04/24 09:30:41;;;;;;;16.83;8.00;;;;;;;;;;4944122;28;20085;-47
2021/04/24 09:33:08;;;;;;;17.58;8.80;;;;;;;;;;4944127;28;20027;-48
2021/04/24 09:35:46;;;;;;;13.35;6.93;;;;;;;;;;4943902;28;20387;-48
2021/04/24 09:38:16;;;;;;;13.63;7.80;;;;;;;;;;4943930;28;20557;-48
2021/04/24 09:40:43;;;;;;;12.88;7.45;;;;;;;;;;4944115;28;20386;-47
2021/04/24 09:43:09;;;;;;;17.58;9.90;;;;;;;;;;4944207;28;20036;-48
2021/04/24 09:45:40;;;;;;;13.07;7.65;;;;;;;;;;4943794;28;20558;-47
2021/04/24 09:48:18;;;;;;;12.98;7.47;;;;;;;;;;4945201;28;20039;-48
2021/04/24 09:50:44;;;;;;;15.30;7.55;;;;;;;;;;4944950;28;20030;-47
2021/04/24 09:53:28;;;;;;;16.13;8.68;;;;;;;;;;4944887;28;20031;-48
2021/04/24 09:55:55;;;;;;;23.23;9.70;;;;;;;;;;4948350;28;20097;-48
2021/04/24 09:58:31;;;;;;;15.43;7.20;;;;;;;;;;4947337;28;20037;-46
2021/04/24 10:01:18;;;;;;;11.30;7.25;;;;;;;;;;4947615;28;20353;-46
2021/04/24 10:03:44;;;;;;;14.05;7.65;;;;;;;;;;4947482;28;20121;-46
2021/04/24 10:06:23;;;;;;;12.35;7.38;;;;;;;;;;4946985;28;20061;-46
2021/04/24 10:09:08;;;;;;;16.80;7.20;;;;;;;;;;4947046;28;20043;-46
2021/04/24 10:11:34;;;;;;;13.70;7.25;;;;;;;;;;4948509;28;20030;-46
2021/04/24 10:14:00;;;;;;;17.50;7.40;;;;;;;;;;4947655;28;20027;-46
2021/04/24 10:16:32;;;;;;;28.13;13.40;;;;;;;;;;4949602;28;20126;-50
2021/04/24 10:18:58;;;;;;;54.65;32.45;;;;;;;;;;4947366;28;20031;-49
2021/04/24 10:21:25;;;;;;;56.22;31.60;;;;;;;;;;4948247;28;20070;-49
2021/04/24 10:23:51;;;;;;;26.45;14.75;;;;;;;;;;4947586;28;20438;-52
2021/04/24 10:26:18;;;;;;;18.15;7.45;;;;;;;;;;4947819;28;20027;-48
2021/04/24 10:28:45;;;;;;;22.00;13.07;;;;;;;;;;4947493;28;20057;-48
2021/04/24 10:31:11;;;;;;;16.85;9.35;;;;;;;;;;4948810;28;20027;-49
2021/04/24 10:33:38;;;;;;;37.47;22.52;;;;;;;;;;4947071;28;20034;-50
2021/04/24 10:36:04;;;;;;;24.00;14.27;;;;;;;;;;4947039;28;20054;-51
2021/04/24 10:38:31;;;;;;;57.80;33.58;;;;;;;;;;4948004;28;20098;-48
2021/04/24 10:40:57;;;;;;;81.07;51.80;;;;;;;;;;4948109;28;20031;-49
2021/04/24 10:43:24;;;;;;;109.10;68.53;;;;;;;;;;4946763;28;20578;-52
2021/04/24 10:45:50;;;;;;;56.10;31.15;;;;;;;;;;4946798;28;20442;-50
2021/04/24 10:48:28;;;;;;;82.22;49.08;;;;;;;;;;4946383;28;20043;-48
2021/04/24 10:50:54;;;;;;;44.90;29.02;;;;;;;;;;4946799;28;20035;-49
2021/04/24 10:53:24;;;;;;;87.82;50.60;;;;;;;;;;4946331;28;20070;-58
2021/04/24 10:55:55;;;;;;;36.40;19.45;;;;;;;;;;4946513;28;20396;-53
2021/04/24 10:58:22;;;;;;;47.47;31.97;;;;;;;;;;4946077;28;20215;-50
2021/04/24 11:00:48;;;;;;;56.95;37.13;;;;;;;;;;4946761;28;20272;-53
2021/04/24 11:03:33;;;;;;;44.08;28.75;;;;;;;;;;4946967;28;20031;-53
2021/04/24 11:06:08;;;;;;;30.08;19.40;;;;;;;;;;4945996;28;20047;-52
2021/04/24 11:08:34;;;;;;;21.60;12.07;;;;;;;;;;4947634;28;20179;-51
2021/04/24 11:11:03;;;;;;;38.13;24.23;;;;;;;;;;4947442;28;20024;-57
2021/04/24 11:13:40;;;;;;;35.08;19.58;;;;;;;;;;4953507;28;20031;-48
2021/04/24 11:16:08;;;;;;;120.47;71.35;;;;;;;;;;4948535;28;20042;-52
2021/04/24 11:18:35;;;;;;;60.80;33.80;;;;;;;;;;4946556;28;20062;-48
2021/04/24 11:21:23;;;;;;;47.53;24.15;;;;;;;;;;4947656;28;20035;-47
2021/04/24 11:23:53;;;;;;;14.27;5.28;;;;;;;;;;4949266;28;20035;-47
2021/04/24 11:26:25;;;;;;;45.45;26.17;;;;;;;;;;4951895;28;20039;-49
2021/04/24 11:28:57;;;;;;;15.50;8.85;;;;;;;;;;4947129;28;20031;-47
2021/04/24 11:31:53;;;;;;;36.55;19.17;;;;;;;;;;4946908;28;20035;-48
2021/04/24 11:34:22;;;;;;;18.42;9.35;;;;;;;;;;4933846;28;20609;-49
2021/04/24 11:36:48;;;;;;;24.27;11.60;;;;;;;;;;4946648;28;20762;-47
2021/04/24 11:39:14;;;;;;;15.15;9.10;;;;;;;;;;4947048;28;20040;-48
2021/04/24 11:41:41;;;;;;;11.38;6.97;;;;;;;;;;4946094;28;20498;-47
2021/04/24 11:44:17;;;;;;;14.80;8.70;;;;;;;;;;4946182;28;20438;-45
2021/04/24 11:46:44;;;;;;;26.58;9.55;;;;;;;;;;4945995;28;20251;-46
2021/04/24 11:49:10;;;;;;;14.63;7.35;;;;;;;;;;4947225;28;20754;-48
2021/04/24 11:51:39;;;;;;;55.50;25.65;;;;;;;;;;4945894;28;20113;-51
2021/04/24 11:54:06;;;;;;;32.13;16.92;;;;;;;;;;4945840;28;20106;-47
2021/04/24 11:56:33;;;;;;;63.58;40.47;;;;;;;;;;4945603;28;20019;-56
2021/04/24 11:58:59;;;;;;;72.95;40.55;;;;;;;;;;4945969;28;20023;-46
2021/04/24 12:01:31;;;;;;;41.38;24.05;;;;;;;;;;4946929;28;20031;-45
2021/04/24 12:03:57;;;;;;;34.97;17.98;;;;;;;;;;4945878;28;20456;-46
2021/04/24 12:06:43;;;;;;;38.22;19.83;;;;;;;;;;4945597;28;20061;-49
2021/04/24 12:09:13;;;;;;;30.33;14.25;;;;;;;;;;4945692;28;20047;-49
2021/04/24 12:11:40;;;;;;;38.53;14.00;;;;;;;;;;4946561;28;20404;-48
2021/04/24 12:14:07;;;;;;;14.25;6.88;;;;;;;;;;4947351;28;20035;-46
2021/04/24 12:16:38;;;;;;;17.15;7.03;;;;;;;;;;4946022;28;20027;-52
2021/04/24 12:19:22;;;;;;;13.52;6.70;;;;;;;;;;4945145;28;20178;-47
2021/04/24 12:21:59;;;;;;;41.28;22.40;;;;;;;;;;4946347;28;20111;-55
2021/04/24 12:24:25;;;;;;;46.35;28.00;;;;;;;;;;4946809;28;20134;-49
2021/04/24 12:26:51;;;;;;;21.55;14.35;;;;;;;;;;4945147;28;20062;-48
2021/04/24 12:29:37;;;;;;;21.08;12.90;;;;;;;;;;4946063;28;20031;-48
2021/04/24 12:32:16;;;;;;;13.07;4.97;;;;;;;;;;4945042;28;20110;-47
2021/04/24 12:34:42;;;;;;;18.25;4.93;;;;;;;;;;4946418;28;20031;-52
2021/04/24 12:37:14;;;;;;;16.15;6.60;;;;;;;;;;4944926;28;20059;-52
2021/04/24 12:39:40;;;;;;;;;;;;;;;;;;4946729;28;20037;-50
2021/04/24 12:42:09;;;;;;;12.88;5.88;;;;;;;;;;4944954;28;19914;-52
2021/04/24 12:44:36;;;;;;;19.65;6.30;;;;;;;;;;4945104;28;20519;-48
2021/04/24 12:47:02;;;;;;;27.95;16.15;;;;;;;;;;4946439;28;20027;-51
2021/04/24 12:49:28;;;;;;;29.40;22.05;;;;;;;;;;4944537;28;20046;-49
2021/04/24 12:52:04;;;;;;;34.50;22.55;;;;;;;;;;4944802;28;20094;-48
2021/04/24 12:54:31;;;;;;;22.63;15.85;;;;;;;;;;4945115;28;20037;-47
2021/04/24 12:57:13;;;;;;;19.85;11.48;;;;;;;;;;4945831;28;20030;-51
2021/04/24 12:59:42;;;;;;;24.50;11.52;;;;;;;;;;4944854;28;20150;-48
2021/04/24 13:02:08;;;;;;;39.03;23.48;;;;;;;;;;4944925;28;20097;-49
2021/04/24 13:04:35;;;;;;;33.00;20.25;;;;;;;;;;4946410;28;20031;-54
2021/04/24 13:07:03;;;;;;;56.88;36.95;;;;;;;;;;4944830;28;20066;-49
2021/04/24 13:09:33;;;;;;;20.73;8.00;;;;;;;;;;4944216;28;20727;-48
2021/04/24 13:12:07;;;;;;;17.35;8.02;;;;;;;;;;4944461;28;20486;-50
2021/04/24 13:14:40;;;;;;;9.60;6.25;;;;;;;;;;4944867;28;20750;-46
2021/04/24 13:17:09;;;;;;;14.60;5.53;;;;;;;;;;4946016;28;20087;-45
2021/04/24 13:19:48;;;;;;;8.88;6.32;;;;;;;;;;4944596;28;20034;-46
2021/04/24 13:22:29;;;;;;;9.10;6.30;;;;;;;;;;4945527;28;20438;-47
2021/04/24 13:24:58;;;;;;;7.63;5.07;;;;;;;;;;4944688;28;20023;-47
2021/04/24 13:27:25;;;;;;;8.98;5.07;;;;;;;;;;4944458;28;20423;-46
2021/04/24 13:29:51;;;;;;;7.82;5.65;;;;;;;;;;4947953;28;20035;-46
2021/04/24 13:32:18;;;;;;;13.32;6.75;;;;;;;;;;4948551;28;20387;-45
2021/04/24 13:34:49;;;;;;;7.45;4.93;;;;;;;;;;4949954;28;20697;-46
2021/04/24 13:37:15;;;;;;;;;;;;;;;;;;4948787;28;21690;-46
2021/04/24 13:39:47;;;;;;;10.55;5.50;;;;;;;;;;4949872;28;19956;-45
2021/04/24 13:42:33;;;;;;;11.82;5.22;;;;;;;;;;4948281;28;20332;-48
2021/04/24 13:45:15;;;;;;;8.90;5.22;;;;;;;;;;4938933;28;20043;-47
2021/04/24 13:47:45;;;;;;;7.93;4.93;;;;;;;;;;4949477;28;20027;-46
2021/04/24 13:50:12;;;;;;;10.88;5.50;;;;;;;;;;4947995;28;20050;-46
2021/04/24 13:52:39;;;;;;;10.57;5.63;;;;;;;;;;4950986;28;20084;-46
2021/04/24 13:55:10;;;;;;;10.15;5.35;;;;;;;;;;4950055;28;20275;-47
2021/04/24 13:57:37;;;;;;;8.85;4.82;;;;;;;;;;4952433;28;20037;-47
2021/04/24 14:00:04;;;;;;;12.23;5.55;;;;;;;;;;4952737;28;20042;-47
2021/04/24 14:02:30;;;;;;;8.45;5.35;;;;;;;;;;4953225;28;20043;-47
2021/04/24 14:04:56;;;;;;;11.63;5.40;;;;;;;;;;4952902;28;20046;-47
2021/04/24 14:07:22;;;;;;;11.60;6.13;;;;;;;;;;4953000;28;20057;-45
2021/04/24 14:09:48;;;;;;;8.98;6.22;;;;;;;;;;4952318;28;20387;-47
2021/04/24 14:12:15;;;;;;;9.80;6.57;;;;;;;;;;4952496;28;20061;-48
2021/04/24 14:14:41;;;;;;;14.55;7.22;;;;;;;;;;4950519;28;20112;-47
2021/04/24 14:17:08;;;;;;;8.07;5.30;;;;;;;;;;4953438;28;20134;-47
2021/04/24 14:19:36;;;;;;;10.82;5.20;;;;;;;;;;4953237;28;20011;-46
2021/04/24 14:22:02;;;;;;;7.20;4.95;;;;;;;;;;4951121;28;20041;-47
2021/04/24 14:24:28;;;;;;;8.48;5.10;;;;;;;;;;4952635;28;20023;-47